Time;durP1;ratioP1;P1;durP2;ratioP2;P2;SDS_P1;SDS_P2;PMS_P1;PMS_P2;Temp;Humidity;BMP_temperature;BMP_pressure;BME280_temperature;BME280_humidity;BME280_pressure;Samples;Min_cycle;Max_cycle;Signal;HPM_P1;HPM_P2
2023/03/08 00:01:51;;;;;;;1.80;1.70;;;;;;;;;;5035859;28;20057;-89
2023/03/08 00:04:17;;;;;;;1.42;1.33;;;;;;;;;;5035322;28;20046;-90
2023/03/08 00:06:45;;;;;;;1.33;1.33;;;;;;;;;;5035275;28;20477;-89
2023/03/08 00:09:12;;;;;;;1.50;1.40;;;;;;;;;;5035897;28;20053;-89
2023/03/08 00:11:38;;;;;;;1.73;1.63;;;;;;;;;;5035517;28;20045;-89
2023/03/08 00:14:04;;;;;;;2.88;2.67;;;;;;;;;;5035496;28;20107;-89
2023/03/08 00:16:31;;;;;;;1.45;1.40;;;;;;;;;;5035415;28;20053;-89
2023/03/08 00:18:57;;;;;;;2.03;1.92;;;;;;;;;;5035349;28;20557;-89
2023/03/08 00:21:24;;;;;;;2.00;1.90;;;;;;;;;;5035740;28;20107;-89
2023/03/08 00:23:53;;;;;;;1.25;1.23;;;;;;;;;;5034838;28;20095;-90
2023/03/08 00:26:20;;;;;;;2.25;2.15;;;;;;;;;;5035328;28;20049;-89
2023/03/08 00:28:47;;;;;;;1.60;1.52;;;;;;;;;;5034058;28;20103;-89
2023/03/08 00:31:13;;;;;;;2.08;1.98;;;;;;;;;;5034891;28;20045;-89
2023/03/08 00:33:40;;;;;;;0.82;0.82;;;;;;;;;;5035173;28;20049;-89
2023/03/08 00:36:07;;;;;;;1.85;1.75;;;;;;;;;;5034816;28;20514;-89
2023/03/08 00:38:35;;;;;;;2.15;2.05;;;;;;;;;;5035090;28;20050;-89
2023/03/08 00:41:03;;;;;;;1.48;1.38;;;;;;;;;;5035108;28;20053;-90
2023/03/08 00:43:30;;;;;;;1.70;1.60;;;;;;;;;;5034976;28;20049;-89
2023/03/08 00:45:56;;;;;;;2.88;2.50;;;;;;;;;;5034940;28;20050;-89
2023/03/08 00:48:23;;;;;;;2.83;2.63;;;;;;;;;;5034743;28;20053;-89
2023/03/08 00:50:50;;;;;;;1.95;1.80;;;;;;;;;;5034838;28;20049;-89
2023/03/08 00:53:16;;;;;;;2.53;2.33;;;;;;;;;;5034872;28;20134;-90
2023/03/08 00:55:48;;;;;;;1.33;1.33;;;;;;;;;;5034922;28;20049;-90
2023/03/08 00:58:14;;;;;;;;;;;;;;;;;;5035320;28;20491;-90
2023/03/08 01:00:42;;;;;;;1.25;1.23;;;;;;;;;;5034530;28;20345;-89
2023/03/08 01:03:08;;;;;;;1.95;1.85;;;;;;;;;;5034485;28;20046;-89
2023/03/08 01:05:38;;;;;;;1.58;1.50;;;;;;;;;;5034412;28;20052;-89
2023/03/08 01:08:05;;;;;;;2.88;2.67;;;;;;;;;;5034266;28;20503;-89
2023/03/08 01:10:31;;;;;;;1.13;1.10;;;;;;;;;;5034593;28;20050;-90
2023/03/08 01:12:58;;;;;;;2.08;1.98;;;;;;;;;;5034269;28;20091;-89
2023/03/08 01:15:24;;;;;;;3.80;3.50;;;;;;;;;;5034462;28;20050;-90
2023/03/08 01:17:52;;;;;;;2.72;2.53;;;;;;;;;;5034126;28;20046;-90
2023/03/08 01:20:19;;;;;;;2.45;2.35;;;;;;;;;;5034047;28;20054;-90
2023/03/08 01:22:45;;;;;;;1.98;1.77;;;;;;;;;;5034118;28;20049;-89
2023/03/08 01:25:12;;;;;;;2.03;1.92;;;;;;;;;;5047815;28;20499;-89
2023/03/08 01:27:38;;;;;;;1.80;1.70;;;;;;;;;;5054275;28;20095;-89
2023/03/08 01:30:05;;;;;;;1.55;1.52;;;;;;;;;;5053757;28;20048;-89
2023/03/08 01:32:31;;;;;;;1.17;1.15;;;;;;;;;;5053947;28;20102;-89
2023/03/08 01:35:03;;;;;;;1.85;1.75;;;;;;;;;;5053829;28;20099;-89
2023/03/08 01:37:29;;;;;;;1.55;1.48;;;;;;;;;;5053943;28;20132;-89
2023/03/08 01:39:56;;;;;;;2.13;2.03;;;;;;;;;;5053034;28;20053;-89
2023/03/08 01:42:22;;;;;;;2.80;2.20;;;;;;;;;;5053664;28;20107;-89
2023/03/08 01:44:50;;;;;;;1.48;1.02;;;;;;;;;;5053242;28;20123;-89
2023/03/08 01:47:18;;;;;;;2.13;2.03;;;;;;;;;;5052895;28;20533;-89
2023/03/08 01:49:44;;;;;;;1.50;1.48;;;;;;;;;;5053378;28;20490;-89
2023/03/08 01:52:12;;;;;;;1.23;1.20;;;;;;;;;;5053607;28;20107;-90
2023/03/08 01:54:41;;;;;;;1.90;1.80;;;;;;;;;;5053344;28;20048;-90
2023/03/08 01:57:11;;;;;;;2.35;2.17;;;;;;;;;;5053798;28;20048;-89
2023/03/08 01:59:38;;;;;;;1.77;1.67;;;;;;;;;;5053678;28;20099;-89
2023/03/08 02:02:05;;;;;;;0.95;0.95;;;;;;;;;;5053195;28;20074;-90
2023/03/08 02:04:32;;;;;;;1.42;1.40;;;;;;;;;;5053147;28;20102;-89
2023/03/08 02:06:59;;;;;;;2.38;2.25;;;;;;;;;;5053412;28;20098;-88
2023/03/08 02:09:27;;;;;;;1.38;1.38;;;;;;;;;;5052969;28;20610;-89
2023/03/08 02:11:54;;;;;;;0.98;0.98;;;;;;;;;;5053252;28;20387;-89
2023/03/08 02:14:20;;;;;;;2.05;1.95;;;;;;;;;;5053123;28;20465;-89
2023/03/08 02:16:47;;;;;;;1.92;1.83;;;;;;;;;;5052881;28;20099;-89
2023/03/08 02:19:17;;;;;;;3.08;2.88;;;;;;;;;;5053182;28;20049;-89
2023/03/08 02:21:43;;;;;;;0.98;0.95;;;;;;;;;;5052710;28;20103;-89
2023/03/08 02:24:19;;;;;;;1.40;1.38;;;;;;;;;;5052960;28;20498;-89
2023/03/08 02:26:46;;;;;;;2.28;2.17;;;;;;;;;;5052933;28;20044;-89
2023/03/08 02:29:12;;;;;;;1.70;1.63;;;;;;;;;;5053186;28;20057;-89
2023/03/08 02:31:39;;;;;;;1.42;1.33;;;;;;;;;;5053085;28;20122;-90
2023/03/08 02:34:06;;;;;;;2.05;1.90;;;;;;;;;;5053014;28;20053;-89
2023/03/08 02:36:32;;;;;;;2.30;1.73;;;;;;;;;;5052736;28;20057;-89
2023/03/08 02:38:59;;;;;;;1.42;1.38;;;;;;;;;;5052809;28;20486;-89
2023/03/08 02:41:26;;;;;;;1.25;1.23;;;;;;;;;;5033087;28;20054;-89
2023/03/08 02:43:53;;;;;;;1.45;1.20;;;;;;;;;;5033025;28;20057;-89
2023/03/08 02:46:19;;;;;;;1.77;1.48;;;;;;;;;;5032947;28;20107;-89
2023/03/08 02:48:46;;;;;;;1.70;1.60;;;;;;;;;;5032652;28;20076;-89
2023/03/08 02:51:12;;;;;;;1.25;1.25;;;;;;;;;;5034883;28;20113;-89
2023/03/08 02:53:39;;;;;;;0.88;0.85;;;;;;;;;;5036968;28;20049;-89
2023/03/08 02:56:05;;;;;;;0.63;0.63;;;;;;;;;;5036689;28;20495;-89
2023/03/08 02:58:33;;;;;;;1.77;1.67;;;;;;;;;;5036786;28;20115;-89
2023/03/08 03:01:00;;;;;;;2.40;2.30;;;;;;;;;;5037132;28;20058;-89
2023/03/08 03:03:26;;;;;;;1.52;1.27;;;;;;;;;;5036674;28;20099;-89
2023/03/08 03:05:53;;;;;;;0.90;0.90;;;;;;;;;;5036653;28;20054;-89
2023/03/08 03:08:20;;;;;;;3.08;2.53;;;;;;;;;;5036828;28;20112;-89
2023/03/08 03:10:46;;;;;;;2.53;2.28;;;;;;;;;;5036343;28;20503;-89
2023/03/08 03:13:12;;;;;;;1.55;1.45;;;;;;;;;;5036575;28;20104;-89
2023/03/08 03:15:40;;;;;;;3.55;3.45;;;;;;;;;;5036541;28;20058;-90
2023/03/08 03:18:07;;;;;;;1.60;1.58;;;;;;;;;;5036648;28;20108;-89
2023/03/08 03:20:34;;;;;;;2.08;1.98;;;;;;;;;;5036517;28;20049;-90
2023/03/08 03:23:00;;;;;;;2.50;2.30;;;;;;;;;;5036470;28;20049;-89
2023/03/08 03:25:27;;;;;;;2.00;1.90;;;;;;;;;;5036047;28;20108;-89
2023/03/08 03:27:54;;;;;;;2.47;2.17;;;;;;;;;;5036363;28;20061;-89
2023/03/08 03:30:20;;;;;;;2.17;2.08;;;;;;;;;;5036182;28;20053;-89
2023/03/08 03:32:48;;;;;;;1.70;1.63;;;;;;;;;;5036342;28;20099;-89
2023/03/08 03:35:15;;;;;;;1.02;0.98;;;;;;;;;;5035956;28;20079;-89
2023/03/08 03:37:41;;;;;;;1.00;1.00;;;;;;;;;;5035842;28;20462;-89
2023/03/08 03:40:08;;;;;;;2.50;2.38;;;;;;;;;;5036059;28;20053;-89
2023/03/08 03:42:35;;;;;;;2.10;1.98;;;;;;;;;;5035954;28;20053;-89
2023/03/08 03:45:01;;;;;;;1.67;1.58;;;;;;;;;;5035876;28;20053;-89
2023/03/08 03:47:28;;;;;;;1.80;1.75;;;;;;;;;;5035593;28;20483;-89
2023/03/08 03:49:56;;;;;;;1.80;1.70;;;;;;;;;;5035483;28;20513;-89
2023/03/08 03:52:22;;;;;;;1.33;1.27;;;;;;;;;;5035737;28;20098;-89
2023/03/08 03:54:49;;;;;;;0.98;0.98;;;;;;;;;;5035330;28;20049;-89
2023/03/08 03:57:15;;;;;;;1.10;1.10;;;;;;;;;;5035429;28;20457;-89
2023/03/08 03:59:42;;;;;;;1.13;1.13;;;;;;;;;;5035693;28;20137;-89
2023/03/08 04:02:08;;;;;;;0.95;0.95;;;;;;;;;;5035001;28;20096;-89
2023/03/08 04:04:35;;;;;;;1.27;1.17;;;;;;;;;;5035178;28;20489;-89
2023/03/08 04:07:03;;;;;;;1.90;1.80;;;;;;;;;;5035514;28;20041;-89
2023/03/08 04:09:29;;;;;;;2.10;2.00;;;;;;;;;;5035076;28;20462;-89
2023/03/08 04:12:01;;;;;;;2.95;2.85;;;;;;;;;;5035110;28;20490;-89
2023/03/08 04:14:27;;;;;;;2.25;2.15;;;;;;;;;;5035764;28;20052;-88
2023/03/08 04:16:54;;;;;;;3.17;2.22;;;;;;;;;;5035755;28;20057;-89
2023/03/08 04:19:20;;;;;;;1.40;1.38;;;;;;;;;;5034862;28;20491;-88
2023/03/08 04:21:47;;;;;;;1.40;1.30;;;;;;;;;;5035181;28;20050;-88
2023/03/08 04:24:14;;;;;;;1.27;1.20;;;;;;;;;;5035370;28;20053;-89
2023/03/08 04:26:41;;;;;;;2.15;1.55;;;;;;;;;;5035152;28;20049;-89
2023/03/08 04:29:07;;;;;;;2.55;2.45;;;;;;;;;;5035296;28;20103;-89
2023/03/08 04:31:35;;;;;;;3.25;3.15;;;;;;;;;;5034745;28;20096;-89
2023/03/08 04:34:02;;;;;;;2.10;2.00;;;;;;;;;;5035178;28;20049;-89
2023/03/08 04:36:28;;;;;;;2.17;1.70;;;;;;;;;;5035134;28;20506;-89
2023/03/08 04:38:55;;;;;;;2.22;2.03;;;;;;;;;;5035072;28;20049;-89
2023/03/08 04:41:23;;;;;;;1.45;1.40;;;;;;;;;;5035232;28;20470;-89
2023/03/08 04:43:50;;;;;;;3.17;2.97;;;;;;;;;;5035108;28;20054;-89
2023/03/08 04:46:17;;;;;;;2.20;2.10;;;;;;;;;;5034730;28;20041;-89
2023/03/08 04:48:44;;;;;;;1.95;1.85;;;;;;;;;;5035174;28;20053;-89
2023/03/08 04:51:12;;;;;;;2.47;2.28;;;;;;;;;;5035090;28;20053;-89
2023/03/08 04:53:40;;;;;;;0.98;0.98;;;;;;;;;;5034608;28;20107;-89
2023/03/08 04:56:07;;;;;;;2.08;1.98;;;;;;;;;;5034441;28;20092;-89
2023/03/08 04:58:35;;;;;;;0.82;0.82;;;;;;;;;;5034217;28;20494;-89
2023/03/08 05:01:08;;;;;;;2.80;2.63;;;;;;;;;;5034221;28;20095;-89
2023/03/08 05:03:34;;;;;;;3.25;2.00;;;;;;;;;;5034064;28;20103;-89
2023/03/08 05:06:01;;;;;;;1.73;1.65;;;;;;;;;;5034542;28;20499;-89
2023/03/08 05:08:27;;;;;;;2.28;1.85;;;;;;;;;;5034815;28;20045;-89
2023/03/08 05:10:56;;;;;;;2.63;2.13;;;;;;;;;;5034123;28;20511;-89
2023/03/08 05:13:23;;;;;;;1.95;1.85;;;;;;;;;;5033739;28;20150;-89
2023/03/08 05:15:51;;;;;;;0.85;0.80;;;;;;;;;;5034039;28;20049;-89
2023/03/08 05:18:17;;;;;;;1.58;1.50;;;;;;;;;;5034132;28;20045;-89
2023/03/08 05:20:44;;;;;;;2.47;2.38;;;;;;;;;;5033805;28;20499;-89
2023/03/08 05:23:10;;;;;;;1.65;1.63;;;;;;;;;;5034208;28;20105;-90
2023/03/08 05:25:41;;;;;;;1.25;1.23;;;;;;;;;;5033695;28;20569;-89
2023/03/08 05:28:07;;;;;;;1.67;1.58;;;;;;;;;;5034043;28;20049;-89
2023/03/08 05:30:34;;;;;;;1.00;0.98;;;;;;;;;;5033561;28;20107;-89
2023/03/08 05:33:02;;;;;;;1.70;1.63;;;;;;;;;;5033734;28;20407;-89
2023/03/08 05:35:28;;;;;;;3.03;2.33;;;;;;;;;;5034070;28;20110;-90
2023/03/08 05:37:55;;;;;;;0.98;0.98;;;;;;;;;;5033543;28;20096;-89
2023/03/08 05:40:21;;;;;;;3.88;2.08;;;;;;;;;;5033840;28;20400;-90
2023/03/08 05:42:47;;;;;;;2.60;2.50;;;;;;;;;;5053423;28;20110;-90
2023/03/08 05:45:14;;;;;;;2.90;2.78;;;;;;;;;;5052488;28;20103;-90
2023/03/08 05:47:40;;;;;;;2.97;2.75;;;;;;;;;;5053435;28;20095;-90
2023/03/08 05:50:09;;;;;;;2.33;2.22;;;;;;;;;;5053560;28;20106;-90
2023/03/08 05:52:36;;;;;;;3.17;2.08;;;;;;;;;;5053617;28;20057;-90
2023/03/08 05:55:02;;;;;;;3.70;2.17;;;;;;;;;;5053766;28;20061;-90
2023/03/08 05:57:28;;;;;;;2.55;2.40;;;;;;;;;;5053605;28;20095;-90
2023/03/08 05:59:55;;;;;;;2.20;2.10;;;;;;;;;;5053447;28;20560;-90
2023/03/08 06:02:21;;;;;;;1.95;1.85;;;;;;;;;;5048401;28;20107;-90
2023/03/08 06:04:48;;;;;;;2.78;2.58;;;;;;;;;;5043197;28;20453;-90
2023/03/08 06:07:17;;;;;;;2.63;2.42;;;;;;;;;;5033517;28;20105;-90
2023/03/08 06:09:43;;;;;;;2.65;2.55;;;;;;;;;;5033578;28;20247;-90
2023/03/08 06:12:09;;;;;;;2.00;1.85;;;;;;;;;;5033233;28;20095;-91
2023/03/08 06:14:36;;;;;;;3.63;3.35;;;;;;;;;;5033805;28;20384;-90
2023/03/08 06:17:02;;;;;;;2.63;2.53;;;;;;;;;;5041519;28;20099;-90
2023/03/08 06:19:29;;;;;;;4.70;4.30;;;;;;;;;;5031913;28;20454;-90
2023/03/08 06:21:55;;;;;;;4.85;4.38;;;;;;;;;;5032414;28;20487;-90
2023/03/08 06:24:23;;;;;;;5.00;4.60;;;;;;;;;;5033178;28;20053;-90
2023/03/08 06:26:50;;;;;;;3.50;2.75;;;;;;;;;;5033072;28;20108;-90
2023/03/08 06:29:16;;;;;;;4.18;3.97;;;;;;;;;;5032955;28;20471;-90
2023/03/08 06:31:43;;;;;;;2.55;2.33;;;;;;;;;;5032789;28;20423;-91
2023/03/08 06:34:09;;;;;;;2.05;1.95;;;;;;;;;;5033133;28;20049;-90
2023/03/08 06:36:36;;;;;;;3.13;2.95;;;;;;;;;;5033114;28;20118;-90
2023/03/08 06:39:03;;;;;;;3.20;3.00;;;;;;;;;;5033180;28;20095;-91
2023/03/08 06:41:31;;;;;;;4.45;4.25;;;;;;;;;;5032712;28;20513;-91
2023/03/08 06:43:57;;;;;;;4.10;3.90;;;;;;;;;;5032552;28;20050;-90
2023/03/08 06:46:24;;;;;;;6.50;2.97;;;;;;;;;;5032841;28;20041;-91
2023/03/08 06:48:51;;;;;;;3.30;3.10;;;;;;;;;;5047235;28;20060;-91
2023/03/08 06:51:18;;;;;;;2.10;2.00;;;;;;;;;;5047439;28;20052;-90
2023/03/08 06:53:44;;;;;;;4.47;4.22;;;;;;;;;;5032984;28;20049;-90
2023/03/08 06:56:12;;;;;;;3.55;2.83;;;;;;;;;;5032413;28;20057;-90
2023/03/08 06:58:40;;;;;;;2.53;2.20;;;;;;;;;;5032936;28;20049;-90
2023/03/08 07:01:08;;;;;;;2.95;2.80;;;;;;;;;;5032415;28;20050;-90
2023/03/08 07:03:35;;;;;;;3.47;3.35;;;;;;;;;;5032228;28;20104;-90
2023/03/08 07:06:02;;;;;;;6.45;6.15;;;;;;;;;;5034749;28;20049;-90
2023/03/08 07:08:28;;;;;;;4.10;3.88;;;;;;;;;;5052716;28;20103;-90
2023/03/08 07:10:55;;;;;;;4.38;4.18;;;;;;;;;;5051928;28;20053;-89
2023/03/08 07:13:22;;;;;;;4.15;3.53;;;;;;;;;;5032381;28;20054;-89
2023/03/08 07:15:50;;;;;;;5.03;4.63;;;;;;;;;;5032229;28;20084;-90
2023/03/08 07:18:16;;;;;;;4.00;3.80;;;;;;;;;;5032697;28;20049;-89
2023/03/08 07:20:43;;;;;;;4.50;4.30;;;;;;;;;;5032231;28;20104;-90
2023/03/08 07:23:09;;;;;;;3.80;3.58;;;;;;;;;;5032224;28;20050;-89
2023/03/08 07:25:38;;;;;;;3.72;3.53;;;;;;;;;;5032173;28;20101;-90
2023/03/08 07:28:04;;;;;;;3.75;3.55;;;;;;;;;;5049682;28;20265;-89
2023/03/08 07:30:31;;;;;;;3.05;2.85;;;;;;;;;;5052118;28;20052;-90
2023/03/08 07:32:59;;;;;;;5.65;5.18;;;;;;;;;;5051888;28;20098;-90
2023/03/08 07:35:25;;;;;;;5.45;5.15;;;;;;;;;;5051026;28;20067;-90
2023/03/08 07:37:52;;;;;;;5.38;5.07;;;;;;;;;;5049867;28;20056;-90
2023/03/08 07:40:18;;;;;;;3.50;3.30;;;;;;;;;;5055829;28;20449;-90
2023/03/08 07:42:45;;;;;;;4.95;4.63;;;;;;;;;;5053601;28;20049;-89
2023/03/08 07:45:12;;;;;;;4.05;3.83;;;;;;;;;;5055816;28;20040;-90
2023/03/08 07:47:39;;;;;;;3.83;3.55;;;;;;;;;;5042322;28;20049;-90
2023/03/08 07:50:07;;;;;;;5.20;5.00;;;;;;;;;;5035742;28;20049;-90
2023/03/08 07:52:34;;;;;;;4.07;3.88;;;;;;;;;;5039060;28;20049;-90
2023/03/08 07:55:01;;;;;;;4.65;4.25;;;;;;;;;;5035625;28;20050;-90
2023/03/08 07:57:28;;;;;;;3.13;2.92;;;;;;;;;;5046742;28;20124;-90
2023/03/08 07:59:54;;;;;;;5.07;4.68;;;;;;;;;;5055699;28;20106;-90
2023/03/08 08:02:21;;;;;;;3.50;2.88;;;;;;;;;;5045214;28;20049;-91
2023/03/08 08:04:47;;;;;;;2.83;2.72;;;;;;;;;;5035392;28;20053;-90
2023/03/08 08:07:16;;;;;;;5.25;4.25;;;;;;;;;;5035335;28;20491;-91
2023/03/08 08:09:42;;;;;;;3.35;3.13;;;;;;;;;;5035398;28;20544;-90
2023/03/08 08:12:09;;;;;;;4.57;4.28;;;;;;;;;;5035797;28;20045;-90
2023/03/08 08:14:35;;;;;;;5.97;3.83;;;;;;;;;;5035661;28;20057;-90
2023/03/08 08:17:02;;;;;;;4.20;3.95;;;;;;;;;;5041919;28;20092;-91
2023/03/08 08:19:30;;;;;;;4.05;3.70;;;;;;;;;;5055606;28;20067;-91
2023/03/08 08:21:57;;;;;;;4.47;4.25;;;;;;;;;;5055462;28;20056;-90
2023/03/08 08:24:25;;;;;;;8.75;7.95;;;;;;;;;;5055099;28;20474;-91
2023/03/08 08:26:51;;;;;;;5.60;5.30;;;;;;;;;;5055250;28;20049;-91
2023/03/08 08:29:18;;;;;;;4.18;3.85;;;;;;;;;;5055343;28;20040;-90
2023/03/08 08:31:44;;;;;;;4.40;4.18;;;;;;;;;;5054663;28;20052;-91
2023/03/08 08:34:11;;;;;;;5.20;4.80;;;;;;;;;;5055009;28;20049;-90
2023/03/08 08:36:37;;;;;;;3.50;3.30;;;;;;;;;;5054965;28;20087;-90
2023/03/08 08:39:04;;;;;;;4.95;4.72;;;;;;;;;;5054914;28;20049;-91
2023/03/08 08:41:32;;;;;;;5.65;5.30;;;;;;;;;;5054657;28;20049;-90
2023/03/08 08:43:59;;;;;;;3.78;3.55;;;;;;;;;;5054969;28;20045;-90
2023/03/08 08:46:26;;;;;;;5.28;4.97;;;;;;;;;;5054470;28;20045;-90
2023/03/08 08:48:53;;;;;;;4.30;4.00;;;;;;;;;;5033941;28;20045;-90
2023/03/08 08:51:19;;;;;;;4.68;4.38;;;;;;;;;;5034641;28;20487;-90
2023/03/08 08:53:46;;;;;;;5.40;4.20;;;;;;;;;;5035241;28;20126;-91
2023/03/08 08:56:13;;;;;;;5.15;4.75;;;;;;;;;;5034634;28;20051;-90
2023/03/08 08:58:41;;;;;;;4.57;4.35;;;;;;;;;;5034413;28;20588;-91
2023/03/08 09:01:13;;;;;;;4.43;4.15;;;;;;;;;;5034677;28;20065;-90
2023/03/08 09:03:39;;;;;;;6.00;5.60;;;;;;;;;;5034626;28;20111;-91
2023/03/08 09:06:06;;;;;;;4.53;4.22;;;;;;;;;;5034741;28;20115;-92
2023/03/08 09:08:32;;;;;;;5.85;5.55;;;;;;;;;;5034148;28;20499;-93
2023/03/08 09:11:02;;;;;;;4.15;3.95;;;;;;;;;;5034384;28;20629;-88
2023/03/08 09:13:28;;;;;;;4.10;3.88;;;;;;;;;;5049558;28;20417;-90
2023/03/08 09:15:56;;;;;;;5.13;4.75;;;;;;;;;;5054165;28;20044;-89
2023/03/08 09:18:22;;;;;;;9.23;8.65;;;;;;;;;;5051203;28;20110;-89
2023/03/08 09:20:49;;;;;;;5.30;5.07;;;;;;;;;;5034482;28;20045;-91
2023/03/08 09:23:15;;;;;;;6.78;6.45;;;;;;;;;;5034325;28;20053;-90
2023/03/08 09:25:42;;;;;;;5.03;4.78;;;;;;;;;;5034404;28;20106;-93
2023/03/08 09:28:09;;;;;;;7.53;6.88;;;;;;;;;;5034214;28;20099;-93
2023/03/08 09:30:35;;;;;;;5.63;5.25;;;;;;;;;;5034205;28;20068;-91
2023/03/08 09:33:03;;;;;;;7.28;6.85;;;;;;;;;;5033909;28;20053;-90
2023/03/08 09:35:30;;;;;;;5.90;5.57;;;;;;;;;;5034089;28;20049;-91
2023/03/08 09:37:57;;;;;;;5.90;5.60;;;;;;;;;;5043550;28;20446;-91
2023/03/08 09:40:25;;;;;;;4.75;4.55;;;;;;;;;;5053539;28;20047;-91
2023/03/08 09:42:55;;;;;;;2.78;2.65;;;;;;;;;;5040886;28;20050;-91
2023/03/08 09:45:24;;;;;;;6.28;5.80;;;;;;;;;;5033557;28;20088;-92
2023/03/08 09:47:52;;;;;;;5.38;5.05;;;;;;;;;;5033757;28;20045;-91
2023/03/08 09:50:27;;;;;;;6.15;5.85;;;;;;;;;;5033995;28;20053;-91
2023/03/08 09:52:56;;;;;;;6.00;4.97;;;;;;;;;;5042275;28;20049;-90
2023/03/08 09:55:28;;;;;;;5.47;5.25;;;;;;;;;;5053795;28;20098;-91
2023/03/08 09:57:56;;;;;;;4.72;4.53;;;;;;;;;;5053471;28;20425;-91
2023/03/08 10:00:26;;;;;;;5.75;5.43;;;;;;;;;;5053506;28;20053;-90
2023/03/08 10:02:56;;;;;;;5.10;4.90;;;;;;;;;;5055655;28;20049;-92
2023/03/08 10:05:27;;;;;;;5.97;5.75;;;;;;;;;;5056826;28;20053;-90
2023/03/08 10:07:58;;;;;;;5.25;5.05;;;;;;;;;;5054778;28;20049;-91
2023/03/08 10:10:38;;;;;;;6.53;6.20;;;;;;;;;;5053251;28;20052;-90
2023/03/08 10:13:27;;;;;;;4.88;4.68;;;;;;;;;;5053913;28;20049;-91
2023/03/08 10:15:57;;;;;;;5.25;4.85;;;;;;;;;;5053864;28;20106;-92
2023/03/08 10:18:28;;;;;;;4.93;4.68;;;;;;;;;;5043506;28;20047;-93
2023/03/08 10:20:56;;;;;;;5.50;5.25;;;;;;;;;;5035348;28;20046;-91
2023/03/08 10:23:24;;;;;;;6.18;5.95;;;;;;;;;;5044484;28;20049;-89
2023/03/08 10:25:51;;;;;;;3.95;3.75;;;;;;;;;;5059453;28;20072;-91
2023/03/08 10:28:18;;;;;;;6.43;6.13;;;;;;;;;;5073005;28;20111;-89
2023/03/08 10:30:46;;;;;;;7.13;6.82;;;;;;;;;;5070472;28;20056;-91
2023/03/08 10:33:13;;;;;;;5.78;5.47;;;;;;;;;;5066335;28;20115;-89
2023/03/08 10:35:52;;;;;;;8.07;7.68;;;;;;;;;;5059160;28;20057;-89
2023/03/08 10:38:20;;;;;;;5.90;5.63;;;;;;;;;;5048107;28;20103;-91
2023/03/08 10:40:46;;;;;;;7.05;6.72;;;;;;;;;;5036838;28;20053;-89
2023/03/08 10:43:18;;;;;;;4.93;4.70;;;;;;;;;;5035180;28;20049;-90
2023/03/08 10:45:44;;;;;;;7.22;6.90;;;;;;;;;;5037918;28;20561;-89
2023/03/08 10:48:17;;;;;;;5.57;5.35;;;;;;;;;;5045893;28;20049;-91
2023/03/08 10:50:44;;;;;;;8.68;8.27;;;;;;;;;;5053637;28;20049;-90
2023/03/08 10:53:11;;;;;;;5.70;5.43;;;;;;;;;;5045425;28;20045;-89
2023/03/08 10:55:44;;;;;;;7.53;7.20;;;;;;;;;;5032998;28;20050;-89
2023/03/08 10:58:26;;;;;;;8.05;7.70;;;;;;;;;;5032662;28;20052;-90
2023/03/08 11:00:54;;;;;;;4.43;4.22;;;;;;;;;;5032303;28;20446;-90
2023/03/08 11:03:21;;;;;;;8.90;8.55;;;;;;;;;;5041150;28;20049;-92
2023/03/08 11:05:53;;;;;;;9.02;8.70;;;;;;;;;;5053003;28;20096;-89
2023/03/08 11:08:20;;;;;;;7.57;7.18;;;;;;;;;;5052101;28;20043;-89
2023/03/08 11:10:48;;;;;;;9.35;8.95;;;;;;;;;;5052460;28;20107;-90
2023/03/08 11:13:20;;;;;;;4.40;4.18;;;;;;;;;;5054645;28;20041;-90
2023/03/08 11:15:51;;;;;;;5.85;5.55;;;;;;;;;;5055476;28;20095;-91
2023/03/08 11:18:25;;;;;;;6.25;6.03;;;;;;;;;;5055399;28;20041;-91
2023/03/08 11:20:53;;;;;;;6.80;6.47;;;;;;;;;;5055631;28;20497;-89
2023/03/08 11:23:22;;;;;;;8.52;8.15;;;;;;;;;;5054783;28;20383;-89
2023/03/08 11:25:55;;;;;;;9.05;8.65;;;;;;;;;;5055568;28;20052;-90
2023/03/08 11:28:41;;;;;;;8.32;7.97;;;;;;;;;;5055194;28;20049;-89
2023/03/08 11:31:13;;;;;;;6.90;6.60;;;;;;;;;;5051681;28;20111;-89
2023/03/08 11:34:01;;;;;;;5.78;5.18;;;;;;;;;;5035392;28;20423;-91
2023/03/08 11:36:30;;;;;;;8.57;8.18;;;;;;;;;;5011858;28;20049;-89
2023/03/08 11:38:58;;;;;;;9.50;9.07;;;;;;;;;;5034825;28;20092;-88
2023/03/08 11:41:29;;;;;;;7.78;7.43;;;;;;;;;;5032986;28;20117;-89
2023/03/08 11:44:01;;;;;;;5.63;5.22;;;;;;;;;;5042740;28;20103;-90
2023/03/08 11:46:31;;;;;;;7.07;6.70;;;;;;;;;;5035681;28;20046;-90
2023/03/08 11:49:04;;;;;;;7.55;7.25;;;;;;;;;;5046384;28;20045;-91
2023/03/08 11:51:35;;;;;;;8.60;8.20;;;;;;;;;;5055988;28;20049;-90
2023/03/08 11:54:08;;;;;;;7.88;7.47;;;;;;;;;;5055161;28;20117;-90
2023/03/08 11:56:46;;;;;;;8.35;8.02;;;;;;;;;;5055572;28;20166;-91
2023/03/08 11:59:27;;;;;;;9.73;9.32;;;;;;;;;;5043334;28;20042;-90
2023/03/08 12:01:56;;;;;;;6.72;6.40;;;;;;;;;;5035663;28;20091;-90
2023/03/08 12:04:26;;;;;;;6.95;6.55;;;;;;;;;;5049091;28;20053;-90
2023/03/08 12:06:55;;;;;;;6.97;6.65;;;;;;;;;;5055356;28;20139;-90
2023/03/08 12:09:24;;;;;;;5.35;5.13;;;;;;;;;;5054723;28;20536;-90
2023/03/08 12:11:55;;;;;;;3.70;3.58;;;;;;;;;;5055061;28;20057;-89
2023/03/08 12:14:24;;;;;;;7.90;7.50;;;;;;;;;;5042539;28;20053;-90
2023/03/08 12:16:52;;;;;;;5.53;5.30;;;;;;;;;;5035068;28;20055;-90
2023/03/08 12:19:26;;;;;;;4.82;4.60;;;;;;;;;;5035320;28;20058;-89
2023/03/08 12:21:55;;;;;;;4.30;4.10;;;;;;;;;;5035195;28;20104;-90
2023/03/08 12:24:27;;;;;;;3.70;3.50;;;;;;;;;;5034303;28;20049;-90
2023/03/08 12:26:59;;;;;;;5.78;5.57;;;;;;;;;;5035132;28;20045;-90
2023/03/08 12:29:27;;;;;;;6.93;6.63;;;;;;;;;;5047223;28;20115;-89
2023/03/08 12:31:54;;;;;;;7.07;6.75;;;;;;;;;;5054092;28;20561;-89
2023/03/08 12:34:36;;;;;;;5.80;5.57;;;;;;;;;;5041709;28;20046;-93
2023/03/08 12:37:02;;;;;;;5.68;5.45;;;;;;;;;;5034792;28;20079;-88
2023/03/08 12:39:30;;;;;;;3.90;3.75;;;;;;;;;;5034805;28;20103;-88
2023/03/08 12:42:03;;;;;;;6.38;6.15;;;;;;;;;;5034355;28;20057;-88
2023/03/08 12:44:30;;;;;;;6.10;5.78;;;;;;;;;;5042001;28;20054;-89
2023/03/08 12:46:59;;;;;;;8.45;8.15;;;;;;;;;;5034190;28;20050;-90
2023/03/08 12:49:27;;;;;;;5.45;5.15;;;;;;;;;;5052553;28;20053;-89
2023/03/08 12:51:59;;;;;;;10.10;9.68;;;;;;;;;;5053958;28;20057;-88
2023/03/08 12:54:27;;;;;;;5.15;4.93;;;;;;;;;;5048891;28;20450;-89
2023/03/08 12:56:55;;;;;;;6.55;6.25;;;;;;;;;;5036153;28;20133;-90
2023/03/08 12:59:36;;;;;;;6.15;5.85;;;;;;;;;;5054028;28;20103;-89
2023/03/08 13:02:21;;;;;;;4.55;4.35;;;;;;;;;;5031775;28;20083;-88
2023/03/08 13:04:47;;;;;;;5.22;5.03;;;;;;;;;;5052412;28;20056;-89
2023/03/08 13:07:20;;;;;;;5.50;5.30;;;;;;;;;;5051160;28;20125;-90
2023/03/08 13:10:01;;;;;;;6.85;6.55;;;;;;;;;;5044211;28;20049;-90
2023/03/08 13:12:33;;;;;;;4.90;4.68;;;;;;;;;;5045225;28;20053;-89
2023/03/08 13:15:01;;;;;;;7.65;7.35;;;;;;;;;;5051657;28;20049;-90
2023/03/08 13:17:38;;;;;;;6.07;5.82;;;;;;;;;;5052256;28;20108;-89
2023/03/08 13:20:10;;;;;;;5.22;5.00;;;;;;;;;;5041293;28;20050;-89
2023/03/08 13:22:40;;;;;;;7.18;6.85;;;;;;;;;;5033802;28;20103;-89
2023/03/08 13:25:09;;;;;;;6.57;6.30;;;;;;;;;;5034066;28;20543;-90
2023/03/08 13:27:40;;;;;;;10.05;9.55;;;;;;;;;;5036149;28;20083;-89
2023/03/08 13:30:17;;;;;;;7.05;6.72;;;;;;;;;;5033308;28;20057;-89
2023/03/08 13:32:45;;;;;;;4.85;4.63;;;;;;;;;;5046325;28;20053;-91
2023/03/08 13:35:14;;;;;;;5.25;5.00;;;;;;;;;;5053398;28;20099;-89
2023/03/08 13:37:41;;;;;;;5.35;5.15;;;;;;;;;;5053287;28;20056;-89
2023/03/08 13:40:15;;;;;;;5.32;5.10;;;;;;;;;;5053779;28;20057;-89
2023/03/08 13:42:52;;;;;;;7.30;7.00;;;;;;;;;;5053608;28;20048;-90
2023/03/08 13:45:18;;;;;;;5.60;5.30;;;;;;;;;;5049058;28;20095;-89
2023/03/08 13:47:47;;;;;;;5.93;5.57;;;;;;;;;;5035464;28;20111;-89
2023/03/08 13:50:20;;;;;;;8.43;8.10;;;;;;;;;;5048337;28;20060;-91
2023/03/08 13:52:47;;;;;;;5.00;4.78;;;;;;;;;;5038133;28;20127;-88
2023/03/08 13:55:19;;;;;;;5.05;4.78;;;;;;;;;;5038799;28;20049;-89
2023/03/08 13:57:48;;;;;;;10.52;10.10;;;;;;;;;;5053128;28;20110;-89
2023/03/08 14:00:26;;;;;;;5.63;5.40;;;;;;;;;;5053011;28;20128;-89
2023/03/08 14:02:56;;;;;;;5.35;5.13;;;;;;;;;;5053503;28;20056;-90
2023/03/08 14:05:23;;;;;;;5.32;5.03;;;;;;;;;;5033042;28;20049;-88
2023/03/08 14:07:57;;;;;;;6.32;6.05;;;;;;;;;;5040168;28;20045;-88
2023/03/08 14:10:26;;;;;;;6.45;6.15;;;;;;;;;;5032355;28;20111;-89
2023/03/08 14:12:53;;;;;;;6.47;6.18;;;;;;;;;;5032890;28;20057;-89
2023/03/08 14:15:20;;;;;;;5.15;4.82;;;;;;;;;;5046777;28;20053;-89
2023/03/08 14:17:47;;;;;;;7.10;6.78;;;;;;;;;;5051999;28;20049;-89
2023/03/08 14:20:19;;;;;;;6.32;6.03;;;;;;;;;;5052819;28;20053;-90
2023/03/08 14:22:47;;;;;;;7.20;6.93;;;;;;;;;;5052723;28;20103;-89
2023/03/08 14:25:21;;;;;;;4.88;4.68;;;;;;;;;;5039267;28;20049;-89
2023/03/08 14:27:48;;;;;;;16.08;15.48;;;;;;;;;;5032403;28;20045;-89
2023/03/08 14:30:16;;;;;;;5.88;5.63;;;;;;;;;;5041440;28;20060;-88
2023/03/08 14:32:55;;;;;;;5.97;5.68;;;;;;;;;;5052364;28;20049;-89
2023/03/08 14:35:25;;;;;;;8.95;6.50;;;;;;;;;;5052344;28;20136;-89
2023/03/08 14:37:54;;;;;;;4.07;3.88;;;;;;;;;;5046274;28;20053;-88
2023/03/08 14:40:24;;;;;;;5.40;5.18;;;;;;;;;;5032165;28;20132;-88
2023/03/08 14:42:52;;;;;;;6.07;5.75;;;;;;;;;;5032384;28;20495;-89
2023/03/08 14:45:21;;;;;;;5.93;5.70;;;;;;;;;;5034428;28;20049;-89
2023/03/08 14:47:49;;;;;;;4.57;4.38;;;;;;;;;;5035104;28;20049;-88
2023/03/08 14:50:19;;;;;;;6.53;6.22;;;;;;;;;;5047564;28;20059;-88